sensor_id;sensor_type;location;lat;lon;timestamp;P1;durP1;ratioP1;P2;durP2;ratioP2
8562;SDS011;16392;52.508;13.468;2022-11-15T00:00:58;425.60;;;75.13;;
8562;SDS011;16392;52.508;13.468;2022-11-15T00:03:25;421.85;;;70.57;;
8562;SDS011;16392;52.508;13.468;2022-11-15T00:05:53;424.63;;;72.38;;
8562;SDS011;16392;52.508;13.468;2022-11-15T00:08:20;424.08;;;71.20;;
8562;SDS011;16392;52.508;13.468;2022-11-15T00:10:53;424.63;;;73.70;;
8562;SDS011;16392;52.508;13.468;2022-11-15T00:13:24;422.08;;;71.10;;
8562;SDS011;16392;52.508;13.468;2022-11-15T00:15:51;423.73;;;72.75;;
8562;SDS011;16392;52.508;13.468;2022-11-15T00:18:19;422.02;;;72.45;;
8562;SDS011;16392;52.508;13.468;2022-11-15T00:20:46;422.20;;;74.05;;
8562;SDS011;16392;52.508;13.468;2022-11-15T00:23:13;425.17;;;71.45;;
8562;SDS011;16392;52.508;13.468;2022-11-15T00:25:39;423.33;;;74.45;;
8562;SDS011;16392;52.508;13.468;2022-11-15T00:28:06;425.60;;;75.45;;
8562;SDS011;16392;52.508;13.468;2022-11-15T00:30:34;423.08;;;71.47;;
8562;SDS011;16392;52.508;13.468;2022-11-15T00:33:01;424.70;;;71.85;;
8562;SDS011;16392;52.508;13.468;2022-11-15T00:35:30;426.83;;;74.45;;
8562;SDS011;16392;52.508;13.468;2022-11-15T00:37:57;421.05;;;72.43;;
8562;SDS011;16392;52.508;13.468;2022-11-15T00:40:24;421.45;;;70.40;;
8562;SDS011;16392;52.508;13.468;2022-11-15T00:42:51;420.55;;;71.28;;
8562;SDS011;16392;52.508;13.468;2022-11-15T00:45:17;425.65;;;74.90;;
8562;SDS011;16392;52.508;13.468;2022-11-15T00:47:45;419.17;;;69.45;;
8562;SDS011;16392;52.508;13.468;2022-11-15T00:50:12;422.23;;;73.75;;
8562;SDS011;16392;52.508;13.468;2022-11-15T00:52:39;423.05;;;73.72;;
8562;SDS011;16392;52.508;13.468;2022-11-15T00:55:06;421.70;;;71.30;;
8562;SDS011;16392;52.508;13.468;2022-11-15T00:57:36;425.77;;;76.47;;
8562;SDS011;16392;52.508;13.468;2022-11-15T01:00:02;423.00;;;72.95;;
8562;SDS011;16392;52.508;13.468;2022-11-15T01:02:36;419.63;;;72.05;;
8562;SDS011;16392;52.508;13.468;2022-11-15T01:05:04;420.55;;;71.30;;
8562;SDS011;16392;52.508;13.468;2022-11-15T01:07:31;422.60;;;74.70;;
8562;SDS011;16392;52.508;13.468;2022-11-15T01:09:58;420.33;;;72.72;;
8562;SDS011;16392;52.508;13.468;2022-11-15T01:12:26;424.25;;;71.63;;
8562;SDS011;16392;52.508;13.468;2022-11-15T01:14:52;419.80;;;71.90;;
8562;SDS011;16392;52.508;13.468;2022-11-15T01:17:19;420.80;;;71.82;;
8562;SDS011;16392;52.508;13.468;2022-11-15T01:19:45;424.00;;;75.97;;
8562;SDS011;16392;52.508;13.468;2022-11-15T01:22:14;420.13;;;72.43;;
8562;SDS011;16392;52.508;13.468;2022-11-15T01:24:41;421.25;;;71.80;;
8562;SDS011;16392;52.508;13.468;2022-11-15T01:27:07;418.50;;;72.63;;
8562;SDS011;16392;52.508;13.468;2022-11-15T01:29:35;420.33;;;70.75;;
8562;SDS011;16392;52.508;13.468;2022-11-15T01:32:01;421.63;;;73.47;;
8562;SDS011;16392;52.508;13.468;2022-11-15T01:34:28;422.08;;;71.25;;
8562;SDS011;16392;52.508;13.468;2022-11-15T01:36:56;418.38;;;72.15;;
8562;SDS011;16392;52.508;13.468;2022-11-15T01:39:25;424.38;;;74.55;;
8562;SDS011;16392;52.508;13.468;2022-11-15T01:41:52;419.02;;;71.25;;
8562;SDS011;16392;52.508;13.468;2022-11-15T01:44:34;418.08;;;71.32;;
8562;SDS011;16392;52.508;13.468;2022-11-15T01:47:08;418.42;;;72.00;;
8562;SDS011;16392;52.508;13.468;2022-11-15T01:49:39;419.60;;;71.88;;
8562;SDS011;16392;52.508;13.468;2022-11-15T01:52:12;414.35;;;71.07;;
8562;SDS011;16392;52.508;13.468;2022-11-15T01:54:43;416.38;;;70.97;;
8562;SDS011;16392;52.508;13.468;2022-11-15T01:57:10;417.73;;;70.30;;
8562;SDS011;16392;52.508;13.468;2022-11-15T01:59:39;418.98;;;73.57;;
8562;SDS011;16392;52.508;13.468;2022-11-15T02:02:08;418.27;;;70.88;;
8562;SDS011;16392;52.508;13.468;2022-11-15T02:04:35;418.20;;;70.88;;
8562;SDS011;16392;52.508;13.468;2022-11-15T02:07:06;420.40;;;71.47;;
8562;SDS011;16392;52.508;13.468;2022-11-15T02:09:35;419.38;;;69.75;;
8562;SDS011;16392;52.508;13.468;2022-11-15T02:12:05;429.15;;;72.80;;
8562;SDS011;16392;52.508;13.468;2022-11-15T02:14:34;419.33;;;70.03;;
8562;SDS011;16392;52.508;13.468;2022-11-15T02:17:06;416.90;;;73.30;;
8562;SDS011;16392;52.508;13.468;2022-11-15T02:20:08;418.73;;;70.80;;
8562;SDS011;16392;52.508;13.468;2022-11-15T02:22:58;415.80;;;70.60;;
8562;SDS011;16392;52.508;13.468;2022-11-15T02:25:41;417.25;;;70.82;;
8562;SDS011;16392;52.508;13.468;2022-11-15T02:31:16;416.58;;;69.57;;
8562;SDS011;16392;52.508;13.468;2022-11-15T02:33:54;417.80;;;73.10;;
8562;SDS011;16392;52.508;13.468;2022-11-15T02:36:34;416.90;;;70.85;;
8562;SDS011;16392;52.508;13.468;2022-11-15T02:39:07;416.35;;;72.00;;
8562;SDS011;16392;52.508;13.468;2022-11-15T02:41:42;418.33;;;71.22;;
8562;SDS011;16392;52.508;13.468;2022-11-15T02:44:15;417.33;;;70.20;;
8562;SDS011;16392;52.508;13.468;2022-11-15T02:46:45;416.00;;;70.10;;
8562;SDS011;16392;52.508;13.468;2022-11-15T02:49:33;421.08;;;71.78;;
8562;SDS011;16392;52.508;13.468;2022-11-15T02:52:00;417.15;;;70.95;;
8562;SDS011;16392;52.508;13.468;2022-11-15T02:54:28;417.20;;;71.28;;
8562;SDS011;16392;52.508;13.468;2022-11-15T02:56:58;416.73;;;72.18;;
8562;SDS011;16392;52.508;13.468;2022-11-15T03:02:18;418.13;;;70.70;;
8562;SDS011;16392;52.508;13.468;2022-11-15T03:05:01;417.52;;;74.95;;
8562;SDS011;16392;52.508;13.468;2022-11-15T03:07:39;420.48;;;72.97;;
8562;SDS011;16392;52.508;13.468;2022-11-15T03:10:12;420.35;;;71.30;;
8562;SDS011;16392;52.508;13.468;2022-11-15T03:12:45;416.67;;;70.57;;
8562;SDS011;16392;52.508;13.468;2022-11-15T03:15:17;419.42;;;71.97;;
8562;SDS011;16392;52.508;13.468;2022-11-15T03:17:49;415.80;;;71.07;;
8562;SDS011;16392;52.508;13.468;2022-11-15T03:20:21;417.60;;;71.30;;
8562;SDS011;16392;52.508;13.468;2022-11-15T03:22:52;418.17;;;73.15;;
8562;SDS011;16392;52.508;13.468;2022-11-15T03:25:22;415.65;;;70.65;;
8562;SDS011;16392;52.508;13.468;2022-11-15T03:27:52;419.13;;;72.30;;
8562;SDS011;16392;52.508;13.468;2022-11-15T03:30:21;416.25;;;73.68;;
8562;SDS011;16392;52.508;13.468;2022-11-15T03:32:50;416.13;;;72.07;;
8562;SDS011;16392;52.508;13.468;2022-11-15T03:35:20;416.23;;;70.38;;
8562;SDS011;16392;52.508;13.468;2022-11-15T03:37:49;416.13;;;70.68;;
8562;SDS011;16392;52.508;13.468;2022-11-15T03:40:21;415.60;;;71.78;;
8562;SDS011;16392;52.508;13.468;2022-11-15T03:42:54;411.02;;;67.93;;
8562;SDS011;16392;52.508;13.468;2022-11-15T03:45:28;414.42;;;73.57;;
8562;SDS011;16392;52.508;13.468;2022-11-15T03:47:59;416.52;;;70.97;;
8562;SDS011;16392;52.508;13.468;2022-11-15T03:50:31;415.10;;;71.93;;
8562;SDS011;16392;52.508;13.468;2022-11-15T03:52:58;413.67;;;69.68;;
8562;SDS011;16392;52.508;13.468;2022-11-15T03:55:25;416.83;;;71.72;;
8562;SDS011;16392;52.508;13.468;2022-11-15T03:57:52;415.13;;;73.00;;
8562;SDS011;16392;52.508;13.468;2022-11-15T04:00:22;419.88;;;75.07;;
8562;SDS011;16392;52.508;13.468;2022-11-15T04:02:48;414.95;;;73.68;;
8562;SDS011;16392;52.508;13.468;2022-11-15T04:05:16;416.85;;;71.50;;
8562;SDS011;16392;52.508;13.468;2022-11-15T04:07:44;414.58;;;70.75;;
8562;SDS011;16392;52.508;13.468;2022-11-15T04:10:11;414.92;;;74.28;;
8562;SDS011;16392;52.508;13.468;2022-11-15T04:12:39;416.92;;;73.25;;
8562;SDS011;16392;52.508;13.468;2022-11-15T04:15:09;415.27;;;71.72;;
8562;SDS011;16392;52.508;13.468;2022-11-15T04:17:38;414.85;;;72.32;;
8562;SDS011;16392;52.508;13.468;2022-11-15T04:20:07;414.25;;;70.90;;
8562;SDS011;16392;52.508;13.468;2022-11-15T04:22:56;412.00;;;68.70;;
8562;SDS011;16392;52.508;13.468;2022-11-15T04:25:42;412.75;;;69.40;;
8562;SDS011;16392;52.508;13.468;2022-11-15T04:28:09;411.90;;;71.35;;
8562;SDS011;16392;52.508;13.468;2022-11-15T04:30:36;412.77;;;70.00;;
8562;SDS011;16392;52.508;13.468;2022-11-15T04:33:04;408.58;;;67.80;;
8562;SDS011;16392;52.508;13.468;2022-11-15T04:35:30;415.05;;;71.53;;
8562;SDS011;16392;52.508;13.468;2022-11-15T04:37:59;409.65;;;69.10;;
8562;SDS011;16392;52.508;13.468;2022-11-15T04:40:26;411.70;;;68.30;;
8562;SDS011;16392;52.508;13.468;2022-11-15T04:42:52;410.80;;;68.97;;
8562;SDS011;16392;52.508;13.468;2022-11-15T04:45:19;413.75;;;71.60;;
8562;SDS011;16392;52.508;13.468;2022-11-15T04:47:46;413.90;;;70.53;;
8562;SDS011;16392;52.508;13.468;2022-11-15T04:50:14;410.02;;;68.53;;
8562;SDS011;16392;52.508;13.468;2022-11-15T04:52:42;411.70;;;69.22;;
8562;SDS011;16392;52.508;13.468;2022-11-15T04:55:11;414.35;;;69.82;;
8562;SDS011;16392;52.508;13.468;2022-11-15T04:57:37;415.23;;;70.70;;
8562;SDS011;16392;52.508;13.468;2022-11-15T05:00:05;412.70;;;70.57;;
8562;SDS011;16392;52.508;13.468;2022-11-15T05:02:33;415.17;;;70.90;;
8562;SDS011;16392;52.508;13.468;2022-11-15T05:05:17;410.00;;;70.20;;
8562;SDS011;16392;52.508;13.468;2022-11-15T05:07:44;415.35;;;71.38;;
8562;SDS011;16392;52.508;13.468;2022-11-15T05:10:12;411.92;;;70.10;;
8562;SDS011;16392;52.508;13.468;2022-11-15T05:12:41;414.50;;;70.55;;
8562;SDS011;16392;52.508;13.468;2022-11-15T05:15:08;411.95;;;71.97;;
8562;SDS011;16392;52.508;13.468;2022-11-15T05:17:35;412.38;;;71.47;;
8562;SDS011;16392;52.508;13.468;2022-11-15T05:20:02;417.30;;;71.05;;
8562;SDS011;16392;52.508;13.468;2022-11-15T05:22:29;412.65;;;70.05;;
8562;SDS011;16392;52.508;13.468;2022-11-15T05:24:56;412.52;;;69.03;;
8562;SDS011;16392;52.508;13.468;2022-11-15T05:27:23;412.33;;;69.03;;
8562;SDS011;16392;52.508;13.468;2022-11-15T05:29:50;411.55;;;69.03;;
8562;SDS011;16392;52.508;13.468;2022-11-15T05:32:16;414.55;;;71.40;;
8562;SDS011;16392;52.508;13.468;2022-11-15T05:34:44;411.15;;;69.07;;
8562;SDS011;16392;52.508;13.468;2022-11-15T05:37:11;414.85;;;70.63;;
8562;SDS011;16392;52.508;13.468;2022-11-15T05:39:38;411.98;;;71.90;;
8562;SDS011;16392;52.508;13.468;2022-11-15T05:42:05;416.77;;;70.40;;
8562;SDS011;16392;52.508;13.468;2022-11-15T05:44:36;409.98;;;67.93;;
8562;SDS011;16392;52.508;13.468;2022-11-15T05:47:07;412.13;;;72.25;;
8562;SDS011;16392;52.508;13.468;2022-11-15T05:49:38;410.48;;;68.20;;
8562;SDS011;16392;52.508;13.468;2022-11-15T05:52:07;409.50;;;70.75;;
8562;SDS011;16392;52.508;13.468;2022-11-15T05:54:37;412.65;;;71.03;;
8562;SDS011;16392;52.508;13.468;2022-11-15T05:57:05;412.75;;;70.35;;
8562;SDS011;16392;52.508;13.468;2022-11-15T05:59:32;411.95;;;71.50;;
8562;SDS011;16392;52.508;13.468;2022-11-15T06:02:02;409.95;;;69.25;;
8562;SDS011;16392;52.508;13.468;2022-11-15T06:04:29;412.08;;;72.72;;
8562;SDS011;16392;52.508;13.468;2022-11-15T06:06:57;408.05;;;67.45;;
8562;SDS011;16392;52.508;13.468;2022-11-15T06:09:24;411.48;;;71.45;;
8562;SDS011;16392;52.508;13.468;2022-11-15T06:11:51;415.02;;;69.45;;
8562;SDS011;16392;52.508;13.468;2022-11-15T06:14:17;414.65;;;75.70;;
8562;SDS011;16392;52.508;13.468;2022-11-15T06:16:44;409.35;;;69.97;;
8562;SDS011;16392;52.508;13.468;2022-11-15T06:19:12;412.30;;;70.07;;
8562;SDS011;16392;52.508;13.468;2022-11-15T06:21:38;415.42;;;72.55;;
8562;SDS011;16392;52.508;13.468;2022-11-15T06:24:05;408.92;;;69.28;;
8562;SDS011;16392;52.508;13.468;2022-11-15T06:26:40;411.92;;;70.30;;
8562;SDS011;16392;52.508;13.468;2022-11-15T06:29:06;411.92;;;78.75;;
8562;SDS011;16392;52.508;13.468;2022-11-15T06:31:33;411.15;;;70.45;;
8562;SDS011;16392;52.508;13.468;2022-11-15T06:34:00;408.80;;;71.25;;
8562;SDS011;16392;52.508;13.468;2022-11-15T06:36:28;415.60;;;72.38;;
8562;SDS011;16392;52.508;13.468;2022-11-15T06:38:56;410.85;;;72.28;;
8562;SDS011;16392;52.508;13.468;2022-11-15T06:41:22;410.55;;;70.40;;
8562;SDS011;16392;52.508;13.468;2022-11-15T06:43:49;409.02;;;68.78;;
8562;SDS011;16392;52.508;13.468;2022-11-15T06:46:15;413.98;;;74.55;;
8562;SDS011;16392;52.508;13.468;2022-11-15T06:48:42;413.83;;;73.50;;
8562;SDS011;16392;52.508;13.468;2022-11-15T06:51:08;411.45;;;70.20;;
8562;SDS011;16392;52.508;13.468;2022-11-15T06:53:36;412.80;;;69.85;;
8562;SDS011;16392;52.508;13.468;2022-11-15T06:56:04;410.63;;;71.40;;
8562;SDS011;16392;52.508;13.468;2022-11-15T06:58:32;417.02;;;72.50;;
8562;SDS011;16392;52.508;13.468;2022-11-15T07:00:59;414.50;;;74.80;;
8562;SDS011;16392;52.508;13.468;2022-11-15T07:03:26;417.05;;;78.18;;
8562;SDS011;16392;52.508;13.468;2022-11-15T07:05:53;417.52;;;75.75;;
8562;SDS011;16392;52.508;13.468;2022-11-15T07:08:21;418.38;;;74.53;;
8562;SDS011;16392;52.508;13.468;2022-11-15T07:10:51;421.33;;;79.22;;
8562;SDS011;16392;52.508;13.468;2022-11-15T07:13:17;418.45;;;72.40;;
8562;SDS011;16392;52.508;13.468;2022-11-15T07:15:44;415.45;;;75.22;;
8562;SDS011;16392;52.508;13.468;2022-11-15T07:18:11;416.80;;;72.72;;
8562;SDS011;16392;52.508;13.468;2022-11-15T07:20:37;418.08;;;74.80;;
8562;SDS011;16392;52.508;13.468;2022-11-15T07:23:04;418.80;;;77.88;;
8562;SDS011;16392;52.508;13.468;2022-11-15T07:25:32;423.55;;;73.13;;
8562;SDS011;16392;52.508;13.468;2022-11-15T07:28:00;419.00;;;72.90;;
8562;SDS011;16392;52.508;13.468;2022-11-15T07:30:27;417.80;;;73.57;;
8562;SDS011;16392;52.508;13.468;2022-11-15T07:32:54;420.88;;;74.50;;
8562;SDS011;16392;52.508;13.468;2022-11-15T07:35:23;421.30;;;74.20;;
8562;SDS011;16392;52.508;13.468;2022-11-15T07:37:54;424.20;;;75.55;;
8562;SDS011;16392;52.508;13.468;2022-11-15T07:40:21;427.80;;;76.93;;
8562;SDS011;16392;52.508;13.468;2022-11-15T07:42:48;430.70;;;77.70;;
8562;SDS011;16392;52.508;13.468;2022-11-15T07:45:23;438.10;;;81.43;;
8562;SDS011;16392;52.508;13.468;2022-11-15T07:47:51;441.85;;;85.28;;
8562;SDS011;16392;52.508;13.468;2022-11-15T07:50:19;445.10;;;83.63;;
8562;SDS011;16392;52.508;13.468;2022-11-15T07:52:46;448.38;;;84.78;;
8562;SDS011;16392;52.508;13.468;2022-11-15T07:55:13;449.40;;;85.10;;
8562;SDS011;16392;52.508;13.468;2022-11-15T07:57:40;453.10;;;93.18;;
8562;SDS011;16392;52.508;13.468;2022-11-15T08:00:07;457.60;;;91.40;;
8562;SDS011;16392;52.508;13.468;2022-11-15T08:02:36;456.80;;;93.25;;
8562;SDS011;16392;52.508;13.468;2022-11-15T08:05:03;458.20;;;90.47;;
8562;SDS011;16392;52.508;13.468;2022-11-15T08:07:30;464.25;;;103.80;;
8562;SDS011;16392;52.508;13.468;2022-11-15T08:09:57;459.95;;;94.22;;
8562;SDS011;16392;52.508;13.468;2022-11-15T08:12:26;461.88;;;94.63;;
8562;SDS011;16392;52.508;13.468;2022-11-15T08:14:53;463.20;;;97.28;;
8562;SDS011;16392;52.508;13.468;2022-11-15T08:17:20;463.40;;;96.88;;
8562;SDS011;16392;52.508;13.468;2022-11-15T08:19:48;467.95;;;106.13;;
8562;SDS011;16392;52.508;13.468;2022-11-15T08:22:15;463.25;;;97.68;;
8562;SDS011;16392;52.508;13.468;2022-11-15T08:24:42;464.85;;;97.72;;
8562;SDS011;16392;52.508;13.468;2022-11-15T08:27:09;470.05;;;105.47;;
8562;SDS011;16392;52.508;13.468;2022-11-15T08:29:42;467.83;;;106.13;;
8562;SDS011;16392;52.508;13.468;2022-11-15T08:32:10;474.48;;;118.93;;
8562;SDS011;16392;52.508;13.468;2022-11-15T08:34:37;474.60;;;110.40;;
8562;SDS011;16392;52.508;13.468;2022-11-15T08:37:06;482.67;;;124.18;;
8562;SDS011;16392;52.508;13.468;2022-11-15T08:39:32;488.58;;;116.63;;
8562;SDS011;16392;52.508;13.468;2022-11-15T08:41:59;475.17;;;112.80;;
8562;SDS011;16392;52.508;13.468;2022-11-15T08:44:26;476.83;;;112.38;;
8562;SDS011;16392;52.508;13.468;2022-11-15T08:46:52;484.48;;;116.30;;
8562;SDS011;16392;52.508;13.468;2022-11-15T08:49:19;480.40;;;118.35;;
8562;SDS011;16392;52.508;13.468;2022-11-15T08:51:46;481.95;;;119.10;;
8562;SDS011;16392;52.508;13.468;2022-11-15T08:54:15;485.88;;;124.25;;
8562;SDS011;16392;52.508;13.468;2022-11-15T08:56:41;484.05;;;125.50;;
8562;SDS011;16392;52.508;13.468;2022-11-15T08:59:08;483.05;;;125.88;;
8562;SDS011;16392;52.508;13.468;2022-11-15T09:01:37;486.00;;;129.75;;
8562;SDS011;16392;52.508;13.468;2022-11-15T09:04:03;484.27;;;128.45;;
8562;SDS011;16392;52.508;13.468;2022-11-15T09:06:32;486.98;;;128.70;;
8562;SDS011;16392;52.508;13.468;2022-11-15T09:09:00;489.02;;;131.80;;
8562;SDS011;16392;52.508;13.468;2022-11-15T09:11:28;489.80;;;140.30;;
8562;SDS011;16392;52.508;13.468;2022-11-15T09:13:55;489.92;;;132.63;;
8562;SDS011;16392;52.508;13.468;2022-11-15T09:16:22;494.13;;;143.68;;
8562;SDS011;16392;52.508;13.468;2022-11-15T09:18:48;498.33;;;149.45;;
8562;SDS011;16392;52.508;13.468;2022-11-15T09:21:15;495.92;;;145.13;;
8562;SDS011;16392;52.508;13.468;2022-11-15T09:23:41;496.48;;;145.23;;
8562;SDS011;16392;52.508;13.468;2022-11-15T09:26:08;498.65;;;151.32;;
8562;SDS011;16392;52.508;13.468;2022-11-15T09:28:36;500.05;;;155.98;;
8562;SDS011;16392;52.508;13.468;2022-11-15T09:31:06;500.77;;;159.77;;
8562;SDS011;16392;52.508;13.468;2022-11-15T09:33:33;502.55;;;160.95;;
8562;SDS011;16392;52.508;13.468;2022-11-15T09:36:00;510.10;;;161.50;;
8562;SDS011;16392;52.508;13.468;2022-11-15T09:38:28;505.83;;;159.43;;
8562;SDS011;16392;52.508;13.468;2022-11-15T09:40:57;502.42;;;163.25;;
8562;SDS011;16392;52.508;13.468;2022-11-15T09:43:39;505.65;;;165.23;;
8562;SDS011;16392;52.508;13.468;2022-11-15T09:46:14;502.77;;;164.02;;
8562;SDS011;16392;52.508;13.468;2022-11-15T09:48:48;504.88;;;171.00;;
8562;SDS011;16392;52.508;13.468;2022-11-15T09:51:21;505.15;;;173.68;;
8562;SDS011;16392;52.508;13.468;2022-11-15T09:53:54;508.38;;;179.18;;
8562;SDS011;16392;52.508;13.468;2022-11-15T09:56:26;507.88;;;180.75;;
8562;SDS011;16392;52.508;13.468;2022-11-15T09:58:59;504.05;;;178.90;;
8562;SDS011;16392;52.508;13.468;2022-11-15T10:01:42;505.10;;;176.25;;
8562;SDS011;16392;52.508;13.468;2022-11-15T10:04:15;507.63;;;177.82;;
8562;SDS011;16392;52.508;13.468;2022-11-15T10:06:44;505.20;;;172.43;;
8562;SDS011;16392;52.508;13.468;2022-11-15T10:09:16;507.80;;;176.70;;
8562;SDS011;16392;52.508;13.468;2022-11-15T10:11:49;505.42;;;174.18;;
8562;SDS011;16392;52.508;13.468;2022-11-15T10:14:18;503.02;;;173.85;;
8562;SDS011;16392;52.508;13.468;2022-11-15T10:16:54;508.23;;;177.70;;
8562;SDS011;16392;52.508;13.468;2022-11-15T10:19:35;504.25;;;173.32;;
8562;SDS011;16392;52.508;13.468;2022-11-15T10:22:11;507.42;;;187.38;;
8562;SDS011;16392;52.508;13.468;2022-11-15T10:24:47;502.52;;;172.35;;
8562;SDS011;16392;52.508;13.468;2022-11-15T10:27:19;507.63;;;175.38;;
8562;SDS011;16392;52.508;13.468;2022-11-15T10:29:47;502.88;;;173.98;;
8562;SDS011;16392;52.508;13.468;2022-11-15T10:32:16;505.80;;;176.48;;
8562;SDS011;16392;52.508;13.468;2022-11-15T10:34:46;504.40;;;175.27;;
8562;SDS011;16392;52.508;13.468;2022-11-15T10:37:20;505.17;;;178.32;;
8562;SDS011;16392;52.508;13.468;2022-11-15T10:40:02;505.70;;;184.15;;
8562;SDS011;16392;52.508;13.468;2022-11-15T10:42:29;506.48;;;182.10;;
8562;SDS011;16392;52.508;13.468;2022-11-15T10:47:59;503.67;;;182.40;;
8562;SDS011;16392;52.508;13.468;2022-11-15T10:50:52;507.35;;;180.13;;
8562;SDS011;16392;52.508;13.468;2022-11-15T10:53:31;504.02;;;185.48;;
8562;SDS011;16392;52.508;13.468;2022-11-15T10:56:23;509.08;;;189.13;;
8562;SDS011;16392;52.508;13.468;2022-11-15T10:58:56;506.45;;;187.88;;
8562;SDS011;16392;52.508;13.468;2022-11-15T11:01:26;508.42;;;193.07;;
8562;SDS011;16392;52.508;13.468;2022-11-15T11:03:58;506.23;;;191.73;;
8562;SDS011;16392;52.508;13.468;2022-11-15T11:06:27;509.50;;;200.48;;
8562;SDS011;16392;52.508;13.468;2022-11-15T11:08:56;510.13;;;198.32;;
8562;SDS011;16392;52.508;13.468;2022-11-15T11:11:24;506.45;;;192.25;;
8562;SDS011;16392;52.508;13.468;2022-11-15T11:13:52;510.80;;;197.50;;
8562;SDS011;16392;52.508;13.468;2022-11-15T11:16:21;507.25;;;196.60;;
8562;SDS011;16392;52.508;13.468;2022-11-15T11:19:02;512.92;;;201.20;;
8562;SDS011;16392;52.508;13.468;2022-11-15T11:21:42;508.98;;;196.95;;
8562;SDS011;16392;52.508;13.468;2022-11-15T11:24:18;511.95;;;198.60;;
8562;SDS011;16392;52.508;13.468;2022-11-15T11:26:58;510.27;;;201.85;;
8562;SDS011;16392;52.508;13.468;2022-11-15T11:29:38;509.08;;;201.10;;
8562;SDS011;16392;52.508;13.468;2022-11-15T11:32:20;508.80;;;199.93;;
8562;SDS011;16392;52.508;13.468;2022-11-15T11:35:00;505.00;;;193.80;;
8562;SDS011;16392;52.508;13.468;2022-11-15T11:37:35;506.83;;;197.00;;
8562;SDS011;16392;52.508;13.468;2022-11-15T11:40:14;505.83;;;188.02;;
8562;SDS011;16392;52.508;13.468;2022-11-15T11:42:52;503.75;;;184.75;;
8562;SDS011;16392;52.508;13.468;2022-11-15T11:45:40;501.75;;;179.23;;
8562;SDS011;16392;52.508;13.468;2022-11-15T11:51:46;497.70;;;173.82;;
8562;SDS011;16392;52.508;13.468;2022-11-15T11:54:26;500.77;;;174.48;;
8562;SDS011;16392;52.508;13.468;2022-11-15T11:57:02;498.80;;;175.75;;
8562;SDS011;16392;52.508;13.468;2022-11-15T11:59:33;500.48;;;176.52;;
8562;SDS011;16392;52.508;13.468;2022-11-15T12:02:10;500.25;;;179.80;;
8562;SDS011;16392;52.508;13.468;2022-11-15T12:04:42;499.38;;;174.50;;
8562;SDS011;16392;52.508;13.468;2022-11-15T12:07:15;500.48;;;179.65;;
8562;SDS011;16392;52.508;13.468;2022-11-15T12:09:48;503.88;;;181.10;;
8562;SDS011;16392;52.508;13.468;2022-11-15T12:12:21;499.42;;;178.40;;
8562;SDS011;16392;52.508;13.468;2022-11-15T12:14:55;498.85;;;178.43;;
8562;SDS011;16392;52.508;13.468;2022-11-15T12:17:26;498.25;;;173.35;;
8562;SDS011;16392;52.508;13.468;2022-11-15T12:19:58;495.88;;;166.85;;
8562;SDS011;16392;52.508;13.468;2022-11-15T12:22:32;500.67;;;171.18;;
8562;SDS011;16392;52.508;13.468;2022-11-15T12:25:03;499.20;;;166.85;;
8562;SDS011;16392;52.508;13.468;2022-11-15T12:27:35;494.33;;;159.57;;
8562;SDS011;16392;52.508;13.468;2022-11-15T12:30:08;489.58;;;149.57;;
8562;SDS011;16392;52.508;13.468;2022-11-15T12:32:38;491.00;;;148.10;;
8562;SDS011;16392;52.508;13.468;2022-11-15T12:35:20;492.55;;;149.90;;
8562;SDS011;16392;52.508;13.468;2022-11-15T12:37:53;491.42;;;146.07;;
8562;SDS011;16392;52.508;13.468;2022-11-15T12:40:37;489.92;;;145.80;;
8562;SDS011;16392;52.508;13.468;2022-11-15T12:46:02;487.98;;;142.23;;
8562;SDS011;16392;52.508;13.468;2022-11-15T13:03:29;488.58;;;146.13;;
8562;SDS011;16392;52.508;13.468;2022-11-15T13:05:58;487.20;;;145.10;;
8562;SDS011;16392;52.508;13.468;2022-11-15T13:08:38;487.13;;;144.23;;
8562;SDS011;16392;52.508;13.468;2022-11-15T13:17:22;490.58;;;148.48;;
8562;SDS011;16392;52.508;13.468;2022-11-15T13:19:53;491.25;;;150.68;;
8562;SDS011;16392;52.508;13.468;2022-11-15T13:22:25;492.65;;;153.63;;
8562;SDS011;16392;52.508;13.468;2022-11-15T13:25:14;491.70;;;153.15;;
8562;SDS011;16392;52.508;13.468;2022-11-15T13:27:45;490.95;;;154.40;;
8562;SDS011;16392;52.508;13.468;2022-11-15T13:30:16;494.33;;;158.98;;
8562;SDS011;16392;52.508;13.468;2022-11-15T13:32:46;491.10;;;156.38;;
8562;SDS011;16392;52.508;13.468;2022-11-15T13:35:18;490.85;;;152.85;;
8562;SDS011;16392;52.508;13.468;2022-11-15T13:37:48;488.92;;;149.10;;
8562;SDS011;16392;52.508;13.468;2022-11-15T13:40:19;491.52;;;148.90;;
8562;SDS011;16392;52.508;13.468;2022-11-15T13:42:57;491.13;;;151.02;;
8562;SDS011;16392;52.508;13.468;2022-11-15T13:45:24;487.88;;;147.38;;
8562;SDS011;16392;52.508;13.468;2022-11-15T13:47:53;488.85;;;148.57;;
8562;SDS011;16392;52.508;13.468;2022-11-15T13:50:27;485.90;;;143.77;;
8562;SDS011;16392;52.508;13.468;2022-11-15T13:52:57;487.83;;;144.07;;
8562;SDS011;16392;52.508;13.468;2022-11-15T13:55:26;485.13;;;138.10;;
8562;SDS011;16392;52.508;13.468;2022-11-15T13:57:54;483.73;;;138.02;;
8562;SDS011;16392;52.508;13.468;2022-11-15T14:00:25;482.73;;;135.48;;
8562;SDS011;16392;52.508;13.468;2022-11-15T14:03:03;480.73;;;129.02;;
8562;SDS011;16392;52.508;13.468;2022-11-15T14:05:33;479.60;;;129.20;;
8562;SDS011;16392;52.508;13.468;2022-11-15T14:08:00;481.48;;;130.05;;
8562;SDS011;16392;52.508;13.468;2022-11-15T14:10:30;476.88;;;124.05;;
8562;SDS011;16392;52.508;13.468;2022-11-15T14:13:00;480.83;;;131.50;;
8562;SDS011;16392;52.508;13.468;2022-11-15T14:15:30;478.98;;;126.32;;
8562;SDS011;16392;52.508;13.468;2022-11-15T14:17:59;476.35;;;123.43;;
8562;SDS011;16392;52.508;13.468;2022-11-15T14:20:27;480.38;;;128.73;;
8562;SDS011;16392;52.508;13.468;2022-11-15T14:22:58;477.92;;;124.80;;
8562;SDS011;16392;52.508;13.468;2022-11-15T14:25:26;477.08;;;125.18;;
8562;SDS011;16392;52.508;13.468;2022-11-15T14:28:15;476.92;;;122.78;;
8562;SDS011;16392;52.508;13.468;2022-11-15T14:31:04;473.83;;;122.10;;
8562;SDS011;16392;52.508;13.468;2022-11-15T14:33:38;473.00;;;119.90;;
8562;SDS011;16392;52.508;13.468;2022-11-15T14:36:05;472.13;;;118.55;;
8562;SDS011;16392;52.508;13.468;2022-11-15T14:38:38;473.38;;;120.80;;
8562;SDS011;16392;52.508;13.468;2022-11-15T14:41:09;473.20;;;121.30;;
8562;SDS011;16392;52.508;13.468;2022-11-15T14:43:55;470.85;;;116.35;;
8562;SDS011;16392;52.508;13.468;2022-11-15T14:46:29;476.80;;;117.55;;
8562;SDS011;16392;52.508;13.468;2022-11-15T14:48:57;469.00;;;112.07;;
8562;SDS011;16392;52.508;13.468;2022-11-15T14:51:24;471.13;;;115.45;;
8562;SDS011;16392;52.508;13.468;2022-11-15T14:53:51;469.40;;;116.40;;
8562;SDS011;16392;52.508;13.468;2022-11-15T14:56:19;468.17;;;112.43;;
